createdAt,value
2023-02-15T00:03:54.684Z,49.78
2023-02-15T00:08:12.333Z,46.13
2023-02-15T00:12:18.624Z,49.78
2023-02-15T00:16:22.427Z,44.85
2023-02-15T00:20:33.160Z,45.10
2023-02-15T00:24:37.423Z,47.35
2023-02-15T00:28:46.880Z,55.10
2023-02-15T00:32:51.308Z,46.60
2023-02-15T00:36:56.307Z,44.80
2023-02-15T00:45:06.452Z,54.70
2023-02-15T00:49:10.432Z,36.67
2023-02-15T00:53:17.084Z,46.67
2023-02-15T00:57:24.053Z,43.08
2023-02-15T01:01:30.290Z,38.55
2023-02-15T01:05:35.413Z,68.35
2023-02-15T01:09:43.122Z,44.70
2023-02-15T01:13:47.511Z,42.78
2023-02-15T01:17:54.882Z,44.22
2023-02-15T01:21:58.746Z,61.80
2023-02-15T01:26:04.943Z,38.38
2023-02-15T01:30:10.452Z,44.38
2023-02-15T01:34:16.467Z,49.90
2023-02-15T01:38:20.437Z,48.63
2023-02-15T01:42:24.388Z,42.10
2023-02-15T01:46:31.863Z,41.67
2023-02-15T01:50:45.632Z,40.25
2023-02-15T01:54:49.649Z,38.88
2023-02-15T01:58:59.323Z,48.35
2023-02-15T02:03:03.222Z,44.13
2023-02-15T02:07:13.039Z,35.08
2023-02-15T02:11:22.798Z,37.75
2023-02-15T02:15:32.055Z,43.75
2023-02-15T02:20:08.656Z,37.63
2023-02-15T02:24:37.097Z,39.53
2023-02-15T02:29:08.394Z,37.85
2023-02-15T02:33:22.705Z,39.15
2023-02-15T02:37:31.203Z,43.80
2023-02-15T02:41:38.474Z,37.72
2023-02-15T02:45:46.127Z,33.67
2023-02-15T02:49:50.797Z,39.08
2023-02-15T02:53:56.590Z,41.10
2023-02-15T02:58:02.858Z,45.72
2023-02-15T03:02:13.914Z,46.85
2023-02-15T03:10:24.735Z,37.35
2023-02-15T03:14:27.986Z,40.47
2023-02-15T03:18:35.802Z,36.13
2023-02-15T03:22:43.123Z,39.92
2023-02-15T03:26:49.180Z,37.15
2023-02-15T03:30:56.193Z,44.70
2023-02-15T03:35:00.115Z,56.13
2023-02-15T03:39:12.151Z,40.88
2023-02-15T03:43:19.423Z,35.63
2023-02-15T03:47:26.473Z,40.00
2023-02-15T03:51:36.197Z,43.80
2023-02-15T03:55:40.728Z,35.00
2023-02-15T04:00:01.411Z,30.88
2023-02-15T04:04:10.136Z,33.85
2023-02-15T04:08:14.432Z,44.10
2023-02-15T04:12:19.155Z,36.53
2023-02-15T04:16:22.394Z,55.45
2023-02-15T04:20:42.904Z,37.17
2023-02-15T04:25:03.843Z,44.35
2023-02-15T04:29:08.681Z,31.95
2023-02-15T04:37:15.020Z,38.97
2023-02-15T04:41:18.349Z,66.75
2023-02-15T04:45:23.534Z,27.48
2023-02-15T04:49:26.945Z,52.13
2023-02-15T04:53:30.273Z,31.48
2023-02-15T04:57:33.769Z,31.00
2023-02-15T05:01:38.514Z,31.70
2023-02-15T05:05:42.459Z,63.53
2023-02-15T05:09:46.114Z,64.70
2023-02-15T05:13:49.892Z,31.65
2023-02-15T05:17:54.656Z,71.55
2023-02-15T05:26:18.247Z,28.77
2023-02-15T05:30:22.257Z,29.17
2023-02-15T05:34:27.199Z,32.28
2023-02-15T05:38:30.746Z,30.33
2023-02-15T05:42:34.584Z,22.65
2023-02-15T05:46:38.216Z,36.35
2023-02-15T05:50:43.650Z,32.20
2023-02-15T05:54:46.865Z,37.33
2023-02-15T05:58:51.906Z,32.58
2023-02-15T06:02:55.684Z,40.65
2023-02-15T06:07:00.861Z,38.92
2023-02-15T06:11:07.455Z,39.45
2023-02-15T06:15:11.638Z,34.72
2023-02-15T06:19:15.804Z,43.70
2023-02-15T06:23:24.199Z,46.67
2023-02-15T06:27:28.433Z,39.15
2023-02-15T06:31:37.390Z,41.65
2023-02-15T06:35:44.438Z,71.88
2023-02-15T06:40:03.618Z,43.33
2023-02-15T06:44:08.211Z,47.53
2023-02-15T06:48:28.269Z,36.95
2023-02-15T06:52:32.214Z,65.55
2023-02-15T06:56:37.417Z,36.72
2023-02-15T07:00:43.761Z,45.75
2023-02-15T07:04:50.747Z,44.05
2023-02-15T07:08:54.747Z,42.35
2023-02-15T07:12:59.897Z,56.58
2023-02-15T07:17:11.741Z,38.90
2023-02-15T07:21:22.122Z,31.38
2023-02-15T07:25:26.043Z,31.40
2023-02-15T07:29:31.047Z,34.25
2023-02-15T07:33:35.603Z,40.42
2023-02-15T07:37:41.793Z,41.40
2023-02-15T07:41:45.388Z,52.88
2023-02-15T07:45:50.738Z,31.80
2023-02-15T07:49:54.920Z,28.35
2023-02-15T07:54:01.640Z,54.05
2023-02-15T07:58:07.927Z,32.20
2023-02-15T08:02:13.769Z,49.28
2023-02-15T08:06:17.390Z,32.92
2023-02-15T08:10:42.109Z,33.85
2023-02-15T08:14:48.891Z,35.35
2023-02-15T08:19:00.295Z,42.67
2023-02-15T08:23:04.437Z,46.75
2023-02-15T08:27:10.155Z,47.25
2023-02-15T08:35:40.147Z,48.38
2023-02-15T08:39:45.634Z,51.33
2023-02-15T08:43:55.456Z,64.60
2023-02-15T08:48:01.722Z,46.63
2023-02-15T08:52:08.314Z,40.50
2023-02-15T08:56:14.842Z,43.35
2023-02-15T09:00:20.649Z,46.00
2023-02-15T09:04:25.160Z,47.95
2023-02-15T09:08:31.045Z,43.72
2023-02-15T09:12:37.914Z,35.63
2023-02-15T09:16:43.769Z,56.05
2023-02-15T09:20:47.598Z,58.97
2023-02-15T09:24:52.916Z,43.97
2023-02-15T09:28:59.221Z,46.58
2023-02-15T09:33:09.093Z,38.60
2023-02-15T09:37:13.659Z,41.88
2023-02-15T09:45:48.545Z,43.20
2023-02-15T09:50:11.932Z,27.15
2023-02-15T09:54:26.256Z,29.25
2023-02-15T09:58:42.707Z,34.67
2023-02-15T10:03:05.890Z,34.17
2023-02-15T10:07:25.377Z,36.58
2023-02-15T10:11:45.496Z,37.55
2023-02-15T10:20:41.047Z,30.58
2023-02-15T10:25:32.542Z,27.58
2023-02-15T10:29:50.224Z,32.33
2023-02-15T10:34:02.148Z,28.35
2023-02-15T10:38:15.239Z,24.30
2023-02-15T10:42:23.920Z,28.08
2023-02-15T10:46:41.251Z,27.08
2023-02-15T10:50:52.805Z,23.02
2023-02-15T10:55:02.201Z,25.20
2023-02-15T10:59:27.115Z,24.20
2023-02-15T11:03:39.894Z,25.52
2023-02-15T11:07:45.940Z,24.33
2023-02-15T11:11:52.190Z,29.73
2023-02-15T11:15:57.617Z,27.38
2023-02-15T11:20:07.292Z,25.98
2023-02-15T11:24:14.150Z,25.00
2023-02-15T11:28:25.986Z,25.02
2023-02-15T11:32:32.009Z,23.73
2023-02-15T11:36:39.658Z,25.02
2023-02-15T11:40:49.240Z,21.95
2023-02-15T11:45:01.710Z,23.73
2023-02-15T11:49:05.332Z,25.45
2023-02-15T11:53:17.946Z,24.90
2023-02-15T11:57:34.775Z,21.80
2023-02-15T12:01:44.503Z,21.13
2023-02-15T12:05:49.989Z,22.42
2023-02-15T12:09:57.668Z,22.50
2023-02-15T12:14:04.794Z,21.95
2023-02-15T12:18:20.511Z,20.98
2023-02-15T12:22:27.736Z,24.63
2023-02-15T12:26:35.715Z,22.65
2023-02-15T12:30:39.713Z,23.65
2023-02-15T12:43:28.531Z,22.70
2023-02-15T12:47:33.577Z,22.73
2023-02-15T12:51:59.480Z,22.38
2023-02-15T12:56:04.767Z,21.15
2023-02-15T13:00:27.794Z,21.85
2023-02-15T13:04:31.720Z,51.83
2023-02-15T13:12:41.268Z,23.63
2023-02-15T13:16:47.347Z,26.80
2023-02-15T13:20:51.471Z,22.02
2023-02-15T13:25:01.156Z,22.02
2023-02-15T13:29:11.321Z,21.88
2023-02-15T13:33:18.563Z,30.92
2023-02-15T13:37:27.355Z,26.15
2023-02-15T13:41:42.521Z,22.92
2023-02-15T13:45:56.674Z,27.05
2023-02-15T13:50:18.751Z,22.42
2023-02-15T13:55:07.604Z,22.20
2023-02-15T13:59:43.882Z,26.35
2023-02-15T14:04:10.209Z,21.27
2023-02-15T14:08:16.204Z,28.50
2023-02-15T14:12:34.546Z,22.13
2023-02-15T14:17:04.330Z,25.70
2023-02-15T14:21:13.490Z,22.73
2023-02-15T14:25:21.204Z,23.38
2023-02-15T14:29:31.412Z,30.25
2023-02-15T14:33:41.059Z,21.80
2023-02-15T14:37:53.820Z,26.50
2023-02-15T14:42:00.378Z,23.25
2023-02-15T14:46:09.641Z,26.30
2023-02-15T14:50:45.780Z,27.05
2023-02-15T14:54:57.298Z,26.52
2023-02-15T14:59:03.192Z,24.38
2023-02-15T15:03:13.783Z,24.35
2023-02-15T15:07:22.132Z,28.73
2023-02-15T15:11:46.064Z,24.08
2023-02-15T15:15:50.126Z,29.02
2023-02-15T15:20:02.406Z,26.23
2023-02-15T15:24:08.418Z,27.55
2023-02-15T15:28:11.402Z,26.23
2023-02-15T15:32:18.672Z,26.90
2023-02-15T15:36:38.298Z,35.13
2023-02-15T15:40:58.950Z,29.60
2023-02-15T15:45:37.591Z,28.10
2023-02-15T15:49:42.880Z,28.10
2023-02-15T15:53:49.993Z,33.63
2023-02-15T15:57:59.617Z,30.27
2023-02-15T16:02:07.340Z,25.02
2023-02-15T16:06:14.573Z,31.00
2023-02-15T16:10:23.917Z,27.75
2023-02-15T16:14:33.364Z,28.15
2023-02-15T16:18:43.605Z,23.00
2023-02-15T16:27:21.091Z,29.00
2023-02-15T16:31:26.161Z,26.83
2023-02-15T16:35:29.782Z,23.38
2023-02-15T16:39:36.406Z,25.70
2023-02-15T16:43:40.060Z,32.70
2023-02-15T16:47:47.178Z,21.90
2023-02-15T16:51:57.988Z,22.30
2023-02-15T16:56:03.421Z,26.83
2023-02-15T17:00:17.449Z,24.77
2023-02-15T17:04:31.310Z,22.45
2023-02-15T17:08:39.399Z,30.33
2023-02-15T17:12:48.689Z,29.98
2023-02-15T17:16:57.461Z,27.92
2023-02-15T17:21:04.620Z,27.15
2023-02-15T17:25:08.604Z,31.65
2023-02-15T17:29:29.548Z,29.63
2023-02-15T17:33:40.563Z,27.88
2023-02-15T17:37:51.703Z,27.90
2023-02-15T17:42:09.512Z,30.35
2023-02-15T17:46:14.229Z,28.98
2023-02-15T17:50:27.438Z,30.70
2023-02-15T17:54:50.058Z,32.55
2023-02-15T17:58:53.704Z,38.25
2023-02-15T18:03:15.617Z,35.00
2023-02-15T18:07:37.325Z,37.00
2023-02-15T18:11:42.606Z,33.28
2023-02-15T18:15:48.583Z,39.85
2023-02-15T18:19:54.325Z,29.80
2023-02-15T18:23:58.617Z,31.90
2023-02-15T18:28:03.494Z,34.10
2023-02-15T18:32:10.367Z,35.78
2023-02-15T18:36:22.807Z,45.10
2023-02-15T18:40:29.009Z,38.28
2023-02-15T18:44:34.909Z,43.92
2023-02-15T18:48:39.578Z,41.05
2023-02-15T18:52:47.233Z,36.65
2023-02-15T18:56:56.565Z,39.25
2023-02-15T19:01:02.122Z,36.08
2023-02-15T19:05:06.420Z,35.00
2023-02-15T19:09:15.635Z,36.10
2023-02-15T19:13:19.568Z,36.75
2023-02-15T19:17:25.886Z,41.95
2023-02-15T19:21:30.879Z,38.97
2023-02-15T19:25:37.900Z,38.55
2023-02-15T19:29:42.248Z,36.83
2023-02-15T19:33:47.365Z,40.58
2023-02-15T19:37:52.524Z,36.78
2023-02-15T19:41:56.387Z,38.70
2023-02-15T19:46:00.173Z,40.45
2023-02-15T19:50:05.381Z,43.50
2023-02-15T19:54:21.015Z,38.38
2023-02-15T19:58:27.938Z,40.47
2023-02-15T20:02:31.704Z,38.80
2023-02-15T20:06:36.965Z,37.95
2023-02-15T20:10:42.543Z,45.10
2023-02-15T20:14:48.001Z,47.00
2023-02-15T20:18:52.422Z,46.03
2023-02-15T20:22:58.015Z,45.47
2023-02-15T20:27:01.976Z,46.38
2023-02-15T20:31:08.711Z,44.83
2023-02-15T20:35:16.121Z,43.22
2023-02-15T20:39:21.554Z,47.85
2023-02-15T20:43:26.351Z,57.35
2023-02-15T20:47:31.307Z,42.80
2023-02-15T20:51:35.200Z,44.20
2023-02-15T20:55:40.360Z,41.38
2023-02-15T20:59:44.825Z,48.50
2023-02-15T21:03:48.928Z,61.58
2023-02-15T21:07:53.821Z,45.65
2023-02-15T21:12:02.737Z,45.15
2023-02-15T21:16:06.658Z,44.67
2023-02-15T21:20:15.423Z,49.88
2023-02-15T21:24:22.627Z,48.58
2023-02-15T21:28:28.971Z,45.97
2023-02-15T21:32:32.985Z,46.20
2023-02-15T21:36:36.747Z,49.85
2023-02-15T21:40:40.356Z,51.80
2023-02-15T21:45:02.955Z,46.00
2023-02-15T21:49:07.603Z,51.88
2023-02-15T21:53:12.774Z,51.05
2023-02-15T21:57:18.721Z,44.50
2023-02-15T22:01:26.465Z,44.83
2023-02-15T22:05:32.469Z,53.40
2023-02-15T22:09:36.248Z,66.88
2023-02-15T22:13:43.113Z,46.63
2023-02-15T22:17:48.468Z,47.05
2023-02-15T22:21:53.334Z,41.42
2023-02-15T22:26:04.614Z,47.92
2023-02-15T22:30:20.128Z,43.08
2023-02-15T22:34:31.324Z,39.35
2023-02-15T22:42:41.957Z,41.85
2023-02-15T22:47:02.160Z,47.10
2023-02-15T22:51:11.855Z,40.65
2023-02-15T22:55:24.252Z,39.72
2023-02-15T22:59:30.865Z,46.67
2023-02-15T23:03:41.573Z,51.05
2023-02-15T23:08:15.920Z,46.15
2023-02-15T23:12:53.731Z,41.10
2023-02-15T23:17:02.310Z,44.00
2023-02-15T23:21:13.497Z,41.97
2023-02-15T23:25:26.928Z,41.58
2023-02-15T23:29:31.598Z,49.33
2023-02-15T23:33:40.441Z,50.13
2023-02-15T23:37:52.040Z,51.35
2023-02-15T23:41:58.133Z,46.72
2023-02-15T23:46:22.741Z,46.08
2023-02-15T23:50:29.374Z,47.42
2023-02-15T23:54:34.127Z,51.08
2023-02-15T23:58:45.273Z,40.78
